Aérodrome :
LOGIN :

S'inscrire | Disclaimer

   EN    FR    IT 

 










Légende :    VFR   VFR Marginal   IFR   IFR Intensif   IFR Très Intensif
Visi : 
Plafond : 
>= 8 km
>= 3000ft
5 à 8 km
1000 à 3000 ft
1500m à 5 km
500 à 1000 ft
800 à 1500m
200 à 500 ft
< 800m
< 200 ft
Symboles :   Orages  Brouillard  Fortes neiges  Fortes précipitations  Vent > 20 kt
SIGMETs :   Divers  Orages  Givrage  Turbulence  Onde Orograph.  Cendres Volcan.






- Altitude de l'aérodrome : 135 ft
- Code IATA : BOJ


LBBG - Burgas

DERNIER METAR :
  • 050530Z 25009KT CAVOK 19/15 Q1012 NOSIG

METARs EXPIRÉS :
  • 050500Z 26007KT CAVOK 18/15 Q1011 NOSIG
  • 050430Z 25007KT CAVOK 18/15 Q1011 NOSIG
  • 050400Z 26009KT CAVOK 17/15 Q1011 NOSIG
  • 050330Z 26008KT CAVOK 16/15 Q1011 NOSIG

TAF TAF LBBG
Valide du 05 à 06h jusqu'au 06 à 06h UTC


050500Z 0506/0606 26010KT CAVOK
TEMPO 0510/0515 24014G24KT
BECMG 0522/0524 VRB04KT



MET'MAP, la Météo Aéronautique d'un coup d'oeil ! - Copyright ORBIFLY Décembre 2007 - Disclaimer

ORBIFLY MET'MAP TEAM :

Programmation & Développement : Alexandra Zaïnal
Sur une idée originale de : Baudouin d'Aumeries
Assistance à la programmation : Marc-Olivier Méhu
Soutien technique & logistique : Manuel Goepfert

Contact : metmap@orbifly.com




SOURCES & CREDITS :

   NOAA